Terminal Aerodrome Forecast
Issued by NWS

Home | Current Version | Previous Version | Text Only | Print | Product List | Glossary On
Versions: 1 2 3 4 5 6 7 8 9 10 11 12 13 14 15
349
FTUS45 KGGW 050529
TAFSDY
TAF
KSDY 050529Z 0506/0606 20007KT P6SM VCSH SCT030 BKN060
     FM051000 28011KT P6SM BKN010
     FM052000 30017G26KT P6SM BKN015
     FM060500 30013KT P6SM VCSH BKN015=

USA.gov is the U.S. government's official web portal to all federal, state and local government web resources and services.